Thailine 9 — 9WGP9 — position and weather

sailwx.info

Track history (hours):
 
Tides and Currents Weather Stations Pressure Air Temp Water Temp Dewpoint Dewpoint Depression Visibility Wind Speed Wind Dir Waves Ship Positions

Thailine 9

Last reported at 2018-Apr-25 22:05 UTC. Time now 2018-Apr-26 15:38 UTC.
Position N 32°45' E 133°14'.

Length 113 m; draft 5.4 m.

Type: Ship. MMSI: 533791000.

Date/timePositionNaut miles runAvg speedWind from/ knotsBaromVisibWave heightAir tempDewpointWater temp
2018-Apr-25 22:05N 32°45' E 133°14'0 1.1
2018-Apr-25 22:00N 32°45' E 133°15'9 3.2
2018-Apr-25 19:10N 32°48' E 133°24'8612.4
2018-Apr-25 12:14N 33°42' E 134°44'612.7
2018-Apr-25 11:48N 33°46' E 134°49'413.1
2018-Apr-25 11:29N 33°49' E 134°52'612.8
2018-Apr-25 11:00N 33°55' E 134°53'612.6
2018-Apr-25 10:30N 34°02' E 134°55'612.4
2018-Apr-25 10:00N 34°08' E 134°56'612.6
2018-Apr-25 09:30N 34°14' E 134°58'612.4
2018-Apr-25 09:00N 34°20' E 134°59'612.4
2018-Apr-25 08:30N 34°25' E 135°04'713.3
2018-Apr-25 08:01N 34°30' E 135°09'712.9
2018-Apr-25 07:30N 34°35' E 135°14'510.6
2018-Apr-25 07:00N 34°39' E 135°18'3 6.8
2018-Apr-25 06:31N 34°42' E 135°17'0 0.1
2018-Apr-25 05:58N 34°42' E 135°17'0 0.0
2018-Apr-25 05:28N 34°42' E 135°17'0 0.0
2018-Apr-25 04:58N 34°42' E 135°17'0 0.0
2018-Apr-25 04:28N 34°42' E 135°17'0 0.1
2018-Apr-25 03:58N 34°42' E 135°17'0 0.1
2018-Apr-25 03:28N 34°42' E 135°17'0 0.0
2018-Apr-25 02:58N 34°42' E 135°17'0 0.0
2018-Apr-25 02:28N 34°42' E 135°17'0 0.0
2018-Apr-25 01:58N 34°42' E 135°17'0 0.0
2018-Apr-25 01:28N 34°42' E 135°17'0 0.0
2018-Apr-25 00:58N 34°42' E 135°17'0 0.0
2018-Apr-25 00:28N 34°42' E 135°17'0 0.0
2018-Apr-24 23:58N 34°42' E 135°17'0 0.0
2018-Apr-24 23:28N 34°42' E 135°17'0 0.0
2018-Apr-24 22:58N 34°42' E 135°17'0 0.0
2018-Apr-24 22:25N 34°42' E 135°17'0 0.1
2018-Apr-24 21:58N 34°42' E 135°17'0 0.1
2018-Apr-24 21:28N 34°42' E 135°17'0 0.0
2018-Apr-24 20:58N 34°42' E 135°17'0 0.0
2018-Apr-24 20:28N 34°42' E 135°17'0 0.0
2018-Apr-24 19:58N 34°42' E 135°17'0 0.1
2018-Apr-24 19:28N 34°42' E 135°17'0 0.1
2018-Apr-24 18:58N 34°42' E 135°17'0 0.0
2018-Apr-24 18:28N 34°42' E 135°17'0 0.0
2018-Apr-24 17:58N 34°42' E 135°17'0 0.0
2018-Apr-24 17:28N 34°42' E 135°17'0 0.0
2018-Apr-24 16:58N 34°42' E 135°17'0 0.0
2018-Apr-24 16:28N 34°42' E 135°17'0 0.0
2018-Apr-24 15:58N 34°42' E 135°17'0 0.0
2018-Apr-24 15:28N 34°42' E 135°17'0 0.0
2018-Apr-24 14:58N 34°42' E 135°17'0 0.0
2018-Apr-24 14:28N 34°42' E 135°17'0 0.0
2018-Apr-24 13:58N 34°42' E 135°17'0 0.0
2018-Apr-24 13:28N 34°42' E 135°17'0 0.0
2018-Apr-24 12:58N 34°42' E 135°17'0 0.0
2018-Apr-24 12:28N 34°42' E 135°17'0 0.0
2018-Apr-24 11:58N 34°42' E 135°17'0 0.0
2018-Apr-24 11:28N 34°42' E 135°17'0 0.0
2018-Apr-24 10:58N 34°42' E 135°17'0 0.0
2018-Apr-24 10:28N 34°42' E 135°17'0 0.0
2018-Apr-24 09:58N 34°42' E 135°17'0 0.0
2018-Apr-24 09:28N 34°42' E 135°17'0 0.0
2018-Apr-24 08:58N 34°42' E 135°17'0 0.0
2018-Apr-24 08:28N 34°42' E 135°17'0 0.0
2018-Apr-24 07:59N 34°42' E 135°17'1 1.9
2018-Apr-24 07:31N 34°42' E 135°18'3 6.8
2018-Apr-24 07:01N 34°38' E 135°19'4 8.0
2018-Apr-24 06:31N 34°34' E 135°19'5 9.4
2018-Apr-24 06:01N 34°31' E 135°23'0 0.2
2018-Apr-24 05:30N 34°31' E 135°23'0 0.1
2018-Apr-24 05:00N 34°31' E 135°23'0 0.1
2018-Apr-24 04:30N 34°31' E 135°23'0 0.0
2018-Apr-24 04:00N 34°31' E 135°23'0 0.1
2018-Apr-24 03:30N 34°31' E 135°23'0 0.1
2018-Apr-24 03:00N 34°31' E 135°23'0 0.0
2018-Apr-24 02:30N 34°31' E 135°23'0 0.1
2018-Apr-24 02:00N 34°31' E 135°23'0 0.1
2018-Apr-24 01:30N 34°31' E 135°23'0 0.0
2018-Apr-24 01:00N 34°31' E 135°23'0 0.0
2018-Apr-24 00:24N 34°31' E 135°23'0 0.0
2018-Apr-24 00:00N 34°31' E 135°23'0 0.0
2018-Apr-23 23:30N 34°31' E 135°23'0 0.0
2018-Apr-23 23:00N 34°31' E 135°23'0 0.0
2018-Apr-23 22:27N 34°31' E 135°23'0 0.0
2018-Apr-23 21:57N 34°31' E 135°23'0 0.0
2018-Apr-23 21:30N 34°31' E 135°23'0 0.0
2018-Apr-23 20:57N 34°31' E 135°23'0 0.0
2018-Apr-23 20:27N 34°31' E 135°23'0 0.1
2018-Apr-23 20:00N 34°31' E 135°23'0 0.1
2018-Apr-23 19:27N 34°31' E 135°23'0 0.0
2018-Apr-23 18:57N 34°31' E 135°23'0 0.0
2018-Apr-23 18:30N 34°31' E 135°23'0 0.0
2018-Apr-23 18:00N 34°31' E 135°23'0 0.1
2018-Apr-23 17:27N 34°31' E 135°23'0 0.1
2018-Apr-23 17:00N 34°31' E 135°23'0 0.0
2018-Apr-23 16:27N 34°31' E 135°23'0 0.1
2018-Apr-23 16:00N 34°31' E 135°23'0 0.1
2018-Apr-23 15:30N 34°31' E 135°23'0 0.0
2018-Apr-23 14:57N 34°31' E 135°23'0 0.0
2018-Apr-23 14:30N 34°31' E 135°23'0 0.0
2018-Apr-23 13:57N 34°31' E 135°23'0 0.0
2018-Apr-23 13:30N 34°31' E 135°23'0 0.0
2018-Apr-23 12:57N 34°31' E 135°23'0 0.0
2018-Apr-23 12:27N 34°31' E 135°23'0 0.0
2018-Apr-23 11:57N 34°31' E 135°23'0 0.0
2018-Apr-23 11:27N 34°31' E 135°23'0 0.0
2018-Apr-23 10:57N 34°31' E 135°23'0 0.0
2018-Apr-23 10:30N 34°31' E 135°23'0 0.0
2018-Apr-23 10:00N 34°31' E 135°23'0 0.0
2018-Apr-23 09:27N 34°31' E 135°23'0 0.0
2018-Apr-23 08:57N 34°31' E 135°23'0 0.0
2018-Apr-23 08:27N 34°31' E 135°23'0 0.0
2018-Apr-23 07:57N 34°31' E 135°23'0 0.0
2018-Apr-23 07:24N 34°31' E 135°23'0 0.0
2018-Apr-23 06:57N 34°31' E 135°23'0 0.0
2018-Apr-23 06:27N 34°31' E 135°23'0 0.0
2018-Apr-23 06:00N 34°31' E 135°23'0 0.0
2018-Apr-23 05:27N 34°31' E 135°23'0 0.0
2018-Apr-23 04:57N 34°31' E 135°23'0 0.0
2018-Apr-23 04:30N 34°31' E 135°23'1 1.5
2018-Apr-23 04:00N 34°32' E 135°23'3 5.7
2018-Apr-23 03:30N 34°31' E 135°20'510.5
2018-Apr-23 03:00N 34°28' E 135°14'612.5
2018-Apr-23 02:30N 34°25' E 135°08'612.8
2018-Apr-23 02:00N 34°21' E 135°02'612.0
2018-Apr-23 01:30N 34°15' E 134°60'611.7
2018-Apr-23 01:00N 34°10' E 134°59'713.3
2018-Apr-23 00:30N 34°04' E 134°56'712.9
2018-Apr-23 00:00N 33°57' E 134°54'612.8
2018-Apr-22 23:30N 33°51' E 134°53'712.8
2018-Apr-22 22:57N 33°45' E 134°49'613.2
2018-Apr-22 22:30N 33°40' E 134°44'713.0
2018-Apr-22 21:58N 33°34' E 134°40'912.6
2018-Apr-22 21:15N 33°27' E 134°33'  
Track history (hours):
 
Tides and Currents Weather Stations Pressure Air Temp Water Temp Dewpoint Dewpoint Depression Visibility Wind Speed Wind Dir Waves Ship Positions

Thailine 9

Last reported at 2018-Apr-25 22:05 UTC. Time now 2018-Apr-26 15:38 UTC.
Position N 32°45' E 133°14'.

Length 113 m; draft 5.4 m.

Type: Ship. MMSI: 533791000.

Date/timePositionNaut miles runAvg speedWind from/ knotsBaromVisibWave heightAir tempDewpointWater temp
2018-Apr-25 22:05N 32°45' E 133°14'0 1.1
2018-Apr-25 22:00N 32°45' E 133°15'9 3.2
2018-Apr-25 19:10N 32°48' E 133°24'8612.4
2018-Apr-25 12:14N 33°42' E 134°44'612.7
2018-Apr-25 11:48N 33°46' E 134°49'413.1
2018-Apr-25 11:29N 33°49' E 134°52'612.8
2018-Apr-25 11:00N 33°55' E 134°53'612.6
2018-Apr-25 10:30N 34°02' E 134°55'612.4
2018-Apr-25 10:00N 34°08' E 134°56'612.6
2018-Apr-25 09:30N 34°14' E 134°58'612.4
2018-Apr-25 09:00N 34°20' E 134°59'612.4
2018-Apr-25 08:30N 34°25' E 135°04'713.3
2018-Apr-25 08:01N 34°30' E 135°09'712.9
2018-Apr-25 07:30N 34°35' E 135°14'510.6
2018-Apr-25 07:00N 34°39' E 135°18'3 6.8
2018-Apr-25 06:31N 34°42' E 135°17'0 0.1
2018-Apr-25 05:58N 34°42' E 135°17'0 0.0
2018-Apr-25 05:28N 34°42' E 135°17'0 0.0
2018-Apr-25 04:58N 34°42' E 135°17'0 0.0
2018-Apr-25 04:28N 34°42' E 135°17'0 0.1
2018-Apr-25 03:58N 34°42' E 135°17'0 0.1
2018-Apr-25 03:28N 34°42' E 135°17'0 0.0
2018-Apr-25 02:58N 34°42' E 135°17'0 0.0
2018-Apr-25 02:28N 34°42' E 135°17'0 0.0
2018-Apr-25 01:58N 34°42' E 135°17'0 0.0
2018-Apr-25 01:28N 34°42' E 135°17'0 0.0
2018-Apr-25 00:58N 34°42' E 135°17'0 0.0
2018-Apr-25 00:28N 34°42' E 135°17'0 0.0
2018-Apr-24 23:58N 34°42' E 135°17'0 0.0
2018-Apr-24 23:28N 34°42' E 135°17'0 0.0
2018-Apr-24 22:58N 34°42' E 135°17'0 0.0
2018-Apr-24 22:25N 34°42' E 135°17'0 0.1
2018-Apr-24 21:58N 34°42' E 135°17'0 0.1
2018-Apr-24 21:28N 34°42' E 135°17'0 0.0
2018-Apr-24 20:58N 34°42' E 135°17'0 0.0
2018-Apr-24 20:28N 34°42' E 135°17'0 0.0
2018-Apr-24 19:58N 34°42' E 135°17'0 0.1
2018-Apr-24 19:28N 34°42' E 135°17'0 0.1
2018-Apr-24 18:58N 34°42' E 135°17'0 0.0
2018-Apr-24 18:28N 34°42' E 135°17'0 0.0
2018-Apr-24 17:58N 34°42' E 135°17'0 0.0
2018-Apr-24 17:28N 34°42' E 135°17'0 0.0
2018-Apr-24 16:58N 34°42' E 135°17'0 0.0
2018-Apr-24 16:28N 34°42' E 135°17'0 0.0
2018-Apr-24 15:58N 34°42' E 135°17'0 0.0
2018-Apr-24 15:28N 34°42' E 135°17'0 0.0
2018-Apr-24 14:58N 34°42' E 135°17'0 0.0
2018-Apr-24 14:28N 34°42' E 135°17'0 0.0
2018-Apr-24 13:58N 34°42' E 135°17'0 0.0
2018-Apr-24 13:28N 34°42' E 135°17'0 0.0
2018-Apr-24 12:58N 34°42' E 135°17'0 0.0
2018-Apr-24 12:28N 34°42' E 135°17'0 0.0
2018-Apr-24 11:58N 34°42' E 135°17'0 0.0
2018-Apr-24 11:28N 34°42' E 135°17'0 0.0
2018-Apr-24 10:58N 34°42' E 135°17'0 0.0
2018-Apr-24 10:28N 34°42' E 135°17'0 0.0
2018-Apr-24 09:58N 34°42' E 135°17'0 0.0
2018-Apr-24 09:28N 34°42' E 135°17'0 0.0
2018-Apr-24 08:58N 34°42' E 135°17'0 0.0
2018-Apr-24 08:28N 34°42' E 135°17'0 0.0
2018-Apr-24 07:59N 34°42' E 135°17'1 1.9
2018-Apr-24 07:31N 34°42' E 135°18'3 6.8
2018-Apr-24 07:01N 34°38' E 135°19'4 8.0
2018-Apr-24 06:31N 34°34' E 135°19'5 9.4
2018-Apr-24 06:01N 34°31' E 135°23'0 0.2
2018-Apr-24 05:30N 34°31' E 135°23'0 0.1
2018-Apr-24 05:00N 34°31' E 135°23'0 0.1
2018-Apr-24 04:30N 34°31' E 135°23'0 0.0
2018-Apr-24 04:00N 34°31' E 135°23'0 0.1
2018-Apr-24 03:30N 34°31' E 135°23'0 0.1
2018-Apr-24 03:00N 34°31' E 135°23'0 0.0
2018-Apr-24 02:30N 34°31' E 135°23'0 0.1
2018-Apr-24 02:00N 34°31' E 135°23'0 0.1
2018-Apr-24 01:30N 34°31' E 135°23'0 0.0
2018-Apr-24 01:00N 34°31' E 135°23'0 0.0
2018-Apr-24 00:24N 34°31' E 135°23'0 0.0
2018-Apr-24 00:00N 34°31' E 135°23'0 0.0
2018-Apr-23 23:30N 34°31' E 135°23'0 0.0
2018-Apr-23 23:00N 34°31' E 135°23'0 0.0
2018-Apr-23 22:27N 34°31' E 135°23'0 0.0
2018-Apr-23 21:57N 34°31' E 135°23'0 0.0
2018-Apr-23 21:30N 34°31' E 135°23'0 0.0
2018-Apr-23 20:57N 34°31' E 135°23'0 0.0
2018-Apr-23 20:27N 34°31' E 135°23'0 0.1
2018-Apr-23 20:00N 34°31' E 135°23'0 0.1
2018-Apr-23 19:27N 34°31' E 135°23'0 0.0
2018-Apr-23 18:57N 34°31' E 135°23'0 0.0
2018-Apr-23 18:30N 34°31' E 135°23'0 0.0
2018-Apr-23 18:00N 34°31' E 135°23'0 0.1
2018-Apr-23 17:27N 34°31' E 135°23'0 0.1
2018-Apr-23 17:00N 34°31' E 135°23'0 0.0
2018-Apr-23 16:27N 34°31' E 135°23'0 0.1
2018-Apr-23 16:00N 34°31' E 135°23'0 0.1
2018-Apr-23 15:30N 34°31' E 135°23'0 0.0
2018-Apr-23 14:57N 34°31' E 135°23'0 0.0
2018-Apr-23 14:30N 34°31' E 135°23'0 0.0
2018-Apr-23 13:57N 34°31' E 135°23'0 0.0
2018-Apr-23 13:30N 34°31' E 135°23'0 0.0
2018-Apr-23 12:57N 34°31' E 135°23'0 0.0
2018-Apr-23 12:27N 34°31' E 135°23'0 0.0
2018-Apr-23 11:57N 34°31' E 135°23'0 0.0
2018-Apr-23 11:27N 34°31' E 135°23'0 0.0
2018-Apr-23 10:57N 34°31' E 135°23'0 0.0
2018-Apr-23 10:30N 34°31' E 135°23'0 0.0
2018-Apr-23 10:00N 34°31' E 135°23'0 0.0
2018-Apr-23 09:27N 34°31' E 135°23'0 0.0
2018-Apr-23 08:57N 34°31' E 135°23'0 0.0
2018-Apr-23 08:27N 34°31' E 135°23'0 0.0
2018-Apr-23 07:57N 34°31' E 135°23'0 0.0
2018-Apr-23 07:24N 34°31' E 135°23'0 0.0
2018-Apr-23 06:57N 34°31' E 135°23'0 0.0
2018-Apr-23 06:27N 34°31' E 135°23'0 0.0
2018-Apr-23 06:00N 34°31' E 135°23'0 0.0
2018-Apr-23 05:27N 34°31' E 135°23'0 0.0
2018-Apr-23 04:57N 34°31' E 135°23'0 0.0
2018-Apr-23 04:30N 34°31' E 135°23'1 1.5
2018-Apr-23 04:00N 34°32' E 135°23'3 5.7
2018-Apr-23 03:30N 34°31' E 135°20'510.5
2018-Apr-23 03:00N 34°28' E 135°14'612.5
2018-Apr-23 02:30N 34°25' E 135°08'612.8
2018-Apr-23 02:00N 34°21' E 135°02'612.0
2018-Apr-23 01:30N 34°15' E 134°60'611.7
2018-Apr-23 01:00N 34°10' E 134°59'713.3
2018-Apr-23 00:30N 34°04' E 134°56'712.9
2018-Apr-23 00:00N 33°57' E 134°54'612.8
2018-Apr-22 23:30N 33°51' E 134°53'712.8
2018-Apr-22 22:57N 33°45' E 134°49'613.2
2018-Apr-22 22:30N 33°40' E 134°44'713.0
2018-Apr-22 21:58N 33°34' E 134°40'912.6
2018-Apr-22 21:15N 33°27' E 134°33'  

Dump ship's entire track history